Time;durP1;ratioP1;P1;durP2;ratioP2;P2;SDS_P1;SDS_P2;PMS_P1;PMS_P2;Temp;Humidity;BMP_temperature;BMP_pressure;BME280_temperature;BME280_humidity;BME280_pressure;Samples;Min_cycle;Max_cycle;Signal;HPM_P1;HPM_P2
2021/09/23 00:00:10;;;;;;;6.50;5.10;;;10.60;99.90;;;;;;5003535;28;20401;-81
2021/09/23 00:02:49;;;;;;;7.60;6.10;;;10.50;99.90;;;;;;5003202;28;20692;-81
2021/09/23 00:05:31;;;;;;;6.77;5.97;;;10.50;99.90;;;;;;5004310;28;20411;-81
2021/09/23 00:07:59;;;;;;;6.43;5.60;;;10.60;99.90;;;;;;5003544;28;20772;-81
2021/09/23 00:10:28;;;;;;;8.87;6.20;;;10.60;99.90;;;;;;5003061;28;20436;-80
2021/09/23 00:12:56;;;;;;;7.90;6.47;;;10.30;99.90;;;;;;5005208;28;20394;-79
2021/09/23 00:15:22;;;;;;;7.93;6.23;;;10.30;99.90;;;;;;5005939;28;20858;-80
2021/09/23 00:17:51;;;;;;;21.13;6.10;;;10.40;99.90;;;;;;5005798;28;20397;-81
2021/09/23 00:20:19;;;;;;;8.60;5.90;;;10.40;99.90;;;;;;5004813;28;20409;-81
2021/09/23 00:22:46;;;;;;;17.17;5.93;;;10.40;99.90;;;;;;5004902;28;20386;-81
2021/09/23 00:25:13;;;;;;;6.70;5.80;;;10.20;99.90;;;;;;5002705;28;20433;-81
2021/09/23 00:27:39;;;;;;;16.43;6.90;;;10.20;99.90;;;;;;5001387;28;20470;-80
2021/09/23 00:30:07;;;;;;;9.87;6.57;;;10.20;99.90;;;;;;5001674;28;20445;-80
2021/09/23 00:32:32;;;;;;;9.10;7.57;;;10.20;99.90;;;;;;5003331;28;20476;-80
2021/09/23 00:34:59;;;;;;;7.10;6.23;;;10.40;99.90;;;;;;5003261;28;20785;-80
2021/09/23 00:37:25;;;;;;;11.10;6.90;;;10.50;99.90;;;;;;5003315;28;20228;-80
2021/09/23 00:39:51;;;;;;;8.47;5.77;;;10.50;99.90;;;;;;5001229;28;20564;-81
2021/09/23 00:42:16;;;;;;;9.40;6.43;;;10.40;99.90;;;;;;5002382;28;20401;-81
2021/09/23 00:44:54;;;;;;;7.93;6.67;;;10.40;99.90;;;;;;5002757;28;20733;-81
2021/09/23 00:47:19;;;;;;;8.50;6.70;;;10.30;99.90;;;;;;5002731;28;20405;-81
2021/09/23 00:49:45;;;;;;;8.27;7.47;;;10.30;99.90;;;;;;5002349;28;20476;-81
2021/09/23 00:52:11;;;;;;;10.60;7.73;;;10.30;99.90;;;;;;5002990;28;20249;-80
2021/09/23 00:54:37;;;;;;;6.27;5.63;;;10.40;99.90;;;;;;5002749;28;20154;-82
2021/09/23 00:57:03;;;;;;;7.00;6.00;;;10.30;99.90;;;;;;5002912;28;20249;-81
2021/09/23 00:59:29;;;;;;;8.40;5.97;;;10.30;99.90;;;;;;5002290;28;20897;-81
2021/09/23 01:01:55;;;;;;;6.00;5.40;;;10.40;99.90;;;;;;5002591;28;20792;-81
2021/09/23 01:04:21;;;;;;;9.77;7.43;;;10.40;99.90;;;;;;5002871;28;20401;-82
2021/09/23 01:06:50;;;;;;;20.43;7.93;;;10.50;99.90;;;;;;5002424;28;20158;-81
2021/09/23 01:09:17;;;;;;;6.83;6.17;;;10.50;99.90;;;;;;5001294;28;20244;-82
2021/09/23 01:11:43;;;;;;;13.03;6.90;;;10.30;99.90;;;;;;5002953;28;20390;-82
2021/09/23 01:14:11;;;;;;;11.17;8.23;;;10.20;99.90;;;;;;5002945;28;20386;-81
2021/09/23 01:16:38;;;;;;;7.10;6.37;;;10.40;99.90;;;;;;5003967;28;20398;-81
2021/09/23 01:19:04;;;;;;;9.60;5.97;;;10.40;99.90;;;;;;5004923;28;20389;-81
2021/09/23 01:21:30;;;;;;;6.80;6.13;;;10.30;99.90;;;;;;5004005;28;20871;-81
2021/09/23 01:23:56;;;;;;;7.83;6.07;;;10.10;99.90;;;;;;5002040;28;20456;-81
2021/09/23 01:26:29;;;;;;;6.13;5.63;;;10.20;99.90;;;;;;5006157;28;20409;-79
2021/09/23 01:28:56;;;;;;;6.73;5.57;;;10.40;99.90;;;;;;5011716;28;20401;-80
2021/09/23 01:31:23;;;;;;;7.60;6.87;;;10.00;99.90;;;;;;5016102;28;20437;-80
2021/09/23 01:33:49;;;;;;;8.73;7.27;;;10.00;99.90;;;;;;5014069;28;20436;-81
2021/09/23 01:36:16;;;;;;;10.23;7.30;;;9.90;99.90;;;;;;5008031;28;20397;-78
2021/09/23 01:38:42;;;;;;;6.23;5.63;;;10.00;99.90;;;;;;5009451;28;20448;-80
2021/09/23 01:41:09;;;;;;;7.80;6.20;;;9.80;99.90;;;;;;5008275;28;20409;-80
2021/09/23 01:43:35;;;;;;;6.40;5.70;;;9.80;99.90;;;;;;5016495;28;20793;-80
2021/09/23 01:46:01;;;;;;;8.30;5.53;;;9.70;99.90;;;;;;5016929;28;20421;-81
2021/09/23 01:48:26;;;;;;;11.03;6.67;;;9.80;99.90;;;;;;5003028;28;20162;-81
2021/09/23 01:50:52;;;;;;;8.70;6.43;;;9.90;99.90;;;;;;5002571;28;20496;-80
2021/09/23 01:53:18;;;;;;;8.07;6.20;;;9.90;99.90;;;;;;5002374;28;20203;-81
2021/09/23 01:55:44;;;;;;;6.70;5.33;;;9.80;99.90;;;;;;5006206;28;20167;-80
2021/09/23 01:58:10;;;;;;;7.20;6.10;;;9.70;99.90;;;;;;5013795;28;20209;-81
2021/09/23 02:00:35;;;;;;;7.33;6.60;;;9.60;99.90;;;;;;5018824;28;20147;-80
2021/09/23 02:03:02;;;;;;;9.43;5.50;;;9.60;99.90;;;;;;5018591;28;20194;-80
2021/09/23 02:05:29;;;;;;;9.73;6.00;;;9.70;99.90;;;;;;5019006;28;20147;-79
2021/09/23 02:07:54;;;;;;;7.60;6.20;;;9.90;99.90;;;;;;5011010;28;20412;-81
2021/09/23 02:10:20;;;;;;;6.57;6.07;;;9.90;99.90;;;;;;5015936;28;20445;-80
2021/09/23 02:12:46;;;;;;;6.83;6.13;;;9.80;99.90;;;;;;5018568;28;20166;-80
2021/09/23 02:15:13;;;;;;;9.73;6.80;;;9.80;99.90;;;;;;5017089;28;20173;-81
2021/09/23 02:17:39;;;;;;;7.37;6.30;;;10.00;99.90;;;;;;5010598;28;20177;-81
2021/09/23 02:20:05;;;;;;;8.77;6.80;;;9.80;99.90;;;;;;5010697;28;20393;-81
2021/09/23 02:22:32;;;;;;;6.13;5.53;;;9.70;99.90;;;;;;5004376;28;20580;-81
2021/09/23 02:24:58;;;;;;;7.43;6.70;;;9.80;99.90;;;;;;5001239;28;20494;-80
2021/09/23 02:27:24;;;;;;;8.17;6.23;;;9.90;99.90;;;;;;5000905;28;20927;-81
2021/09/23 02:29:50;;;;;;;7.00;6.30;;;9.90;99.90;;;;;;5000861;28;20216;-81
2021/09/23 02:32:15;;;;;;;10.23;6.93;;;9.60;99.90;;;;;;5001908;28;20166;-81
2021/09/23 02:34:41;;;;;;;6.17;5.57;;;9.60;99.90;;;;;;5003393;28;20229;-78
2021/09/23 02:37:08;;;;;;;7.87;6.13;;;9.70;99.90;;;;;;5001448;28;20249;-81
2021/09/23 02:39:35;;;;;;;10.57;5.67;;;9.90;99.90;;;;;;5001257;28;20166;-81
2021/09/23 02:42:01;;;;;;;7.10;5.87;;;9.70;99.90;;;;;;5001244;28;20419;-81
2021/09/23 02:44:27;;;;;;;7.20;5.87;;;9.50;99.90;;;;;;4983437;28;20758;-81
2021/09/23 02:46:52;;;;;;;6.60;6.00;;;9.50;99.90;;;;;;5000139;28;20413;-81
2021/09/23 02:49:18;;;;;;;9.70;6.90;;;9.40;99.90;;;;;;5000755;28;20658;-81
2021/09/23 02:51:44;;;;;;;7.77;6.30;;;9.50;99.90;;;;;;5001193;28;20584;-81
2021/09/23 02:54:10;;;;;;;8.40;6.17;;;9.50;99.90;;;;;;5000954;28;20162;-81
2021/09/23 02:56:36;;;;;;;6.83;5.97;;;9.70;99.90;;;;;;5001308;28;20197;-81
2021/09/23 02:59:02;;;;;;;9.33;5.83;;;9.50;99.90;;;;;;5015493;28;20421;-80
2021/09/23 03:01:28;;;;;;;6.57;5.97;;;9.40;99.90;;;;;;5017576;28;20166;-80
2021/09/23 03:03:54;;;;;;;6.57;5.97;;;9.30;99.90;;;;;;5018045;28;20421;-81
2021/09/23 03:06:20;;;;;;;5.17;4.67;;;9.20;99.90;;;;;;5018540;28;20210;-80
2021/09/23 03:08:45;;;;;;;6.73;5.70;;;9.30;99.90;;;;;;5018401;28;20273;-79
2021/09/23 03:11:11;;;;;;;7.27;6.57;;;9.30;99.90;;;;;;5017963;28;20201;-80
2021/09/23 03:13:37;;;;;;;7.30;6.60;;;9.20;99.90;;;;;;5018477;28;20175;-80
2021/09/23 03:16:04;;;;;;;7.93;7.13;;;9.40;99.90;;;;;;5018137;28;20178;-79
2021/09/23 03:18:30;;;;;;;7.73;6.40;;;9.60;99.90;;;;;;5015912;28;20389;-81
2021/09/23 03:20:56;;;;;;;6.33;5.73;;;9.70;99.90;;;;;;5015499;28;20913;-80
2021/09/23 03:23:23;;;;;;;6.70;5.60;;;9.40;99.90;;;;;;5014650;28;20193;-80
2021/09/23 03:25:51;;;;;;;8.37;6.37;;;9.30;99.90;;;;;;5014919;28;20393;-81
2021/09/23 03:28:18;;;;;;;7.43;6.33;;;9.30;99.90;;;;;;5015367;28;20480;-80
2021/09/23 03:30:43;;;;;;;7.07;6.33;;;9.20;99.90;;;;;;5006949;28;20548;-80
2021/09/23 03:33:11;;;;;;;9.97;7.47;;;9.30;99.90;;;;;;5001619;28;20390;-81
2021/09/23 03:35:37;;;;;;;7.50;6.80;;;9.20;99.90;;;;;;5001498;28;20162;-80
2021/09/23 03:38:04;;;;;;;9.50;6.30;;;9.00;99.90;;;;;;5000356;28;20685;-80
2021/09/23 03:40:30;;;;;;;10.20;5.60;;;9.10;99.90;;;;;;5001706;28;20397;-81
2021/09/23 03:42:57;;;;;;;7.53;5.23;;;9.10;99.90;;;;;;5000341;28;20401;-80
2021/09/23 03:45:23;;;;;;;7.77;5.60;;;9.20;99.90;;;;;;5002665;28;20492;-80
2021/09/23 03:47:50;;;;;;;7.37;6.63;;;9.30;99.90;;;;;;5008008;28;20400;-80
2021/09/23 03:50:16;;;;;;;12.13;6.80;;;9.10;99.90;;;;;;5002166;28;20941;-80
2021/09/23 03:52:44;;;;;;;6.40;5.70;;;9.10;99.90;;;;;;5000938;28;20424;-80
2021/09/23 03:55:10;;;;;;;8.50;6.77;;;9.20;99.90;;;;;;5003934;28;20847;-81
2021/09/23 03:57:35;;;;;;;15.30;6.83;;;9.50;99.90;;;;;;5003650;28;20449;-80
2021/09/23 04:00:02;;;;;;;8.50;7.27;;;9.40;99.90;;;;;;5004145;28;20459;-81
2021/09/23 04:02:28;;;;;;;8.50;6.70;;;9.30;99.90;;;;;;5002647;28;20170;-81
2021/09/23 04:04:53;;;;;;;9.40;7.80;;;9.30;99.90;;;;;;5003687;28;20456;-80
2021/09/23 04:07:19;;;;;;;7.20;5.90;;;9.40;99.90;;;;;;5003616;28;20170;-80
2021/09/23 04:09:45;;;;;;;8.63;6.60;;;9.40;99.90;;;;;;5003488;28;20214;-81
2021/09/23 04:12:11;;;;;;;7.47;6.63;;;9.60;99.90;;;;;;5002819;28;20155;-80
2021/09/23 04:14:37;;;;;;;7.93;5.70;;;9.50;99.90;;;;;;5018833;28;20217;-80
2021/09/23 04:17:03;;;;;;;11.50;7.23;;;9.20;99.90;;;;;;5003904;28;20174;-81
2021/09/23 04:19:29;;;;;;;7.13;6.43;;;9.20;99.90;;;;;;5007477;28;20394;-77
2021/09/23 04:21:55;;;;;;;8.80;7.10;;;9.10;99.90;;;;;;5009853;28;20394;-77
2021/09/23 04:24:21;;;;;;;6.33;5.60;;;9.10;99.90;;;;;;5011175;28;20154;-77
2021/09/23 04:26:48;;;;;;;10.43;6.80;;;9.10;99.90;;;;;;5010329;28;20457;-78
2021/09/23 04:29:14;;;;;;;7.67;5.60;;;9.10;99.90;;;;;;5010214;28;20167;-77
2021/09/23 04:31:40;;;;;;;9.33;6.30;;;9.10;99.90;;;;;;5009440;28;20496;-77
2021/09/23 04:34:06;;;;;;;8.23;6.50;;;9.10;99.90;;;;;;5008785;28;20162;-79
2021/09/23 04:36:32;;;;;;;7.40;6.03;;;9.10;99.90;;;;;;5009114;28;20177;-78
2021/09/23 04:38:57;;;;;;;9.30;7.13;;;9.30;99.90;;;;;;5008368;28;20414;-77
2021/09/23 04:41:23;;;;;;;9.50;7.07;;;9.50;99.90;;;;;;5010270;28;20162;-77
2021/09/23 04:43:49;;;;;;;7.43;6.73;;;9.70;99.90;;;;;;5010389;28;20241;-78
2021/09/23 04:46:21;;;;;;;10.67;7.10;;;9.80;99.90;;;;;;5010321;28;20252;-77
2021/09/23 04:48:49;;;;;;;9.30;6.23;;;9.70;99.90;;;;;;5010239;28;20397;-77
2021/09/23 04:51:15;;;;;;;11.90;7.40;;;9.50;99.90;;;;;;5010177;28;20492;-77
2021/09/23 04:53:42;;;;;;;9.23;6.67;;;9.40;99.90;;;;;;5009305;28;20400;-78
2021/09/23 04:56:08;;;;;;;9.90;6.60;;;9.40;99.90;;;;;;5007755;28;20155;-80
2021/09/23 04:58:34;;;;;;;7.87;6.43;;;9.50;99.90;;;;;;5000502;28;20531;-78
2021/09/23 05:00:59;;;;;;;15.10;6.90;;;9.50;99.90;;;;;;5002302;28;20174;-80
2021/09/23 05:03:25;;;;;;;7.33;6.40;;;9.50;99.90;;;;;;5002366;28;20162;-80
2021/09/23 05:05:51;;;;;;;9.70;6.43;;;9.60;99.90;;;;;;5002231;28;20194;-80
2021/09/23 05:08:17;;;;;;;11.60;7.40;;;9.70;99.90;;;;;;5001355;28;20190;-80
2021/09/23 05:10:42;;;;;;;16.00;9.67;;;9.90;99.90;;;;;;5002177;28;20249;-80
2021/09/23 05:13:08;;;;;;;7.67;6.80;;;9.70;99.90;;;;;;5000411;28;20186;-80
2021/09/23 05:15:36;;;;;;;17.43;7.47;;;9.60;99.90;;;;;;5001667;28;20220;-81
2021/09/23 05:18:02;;;;;;;9.70;6.40;;;9.60;99.90;;;;;;5001802;28;20595;-80
2021/09/23 05:20:28;;;;;;;9.23;5.87;;;9.80;99.90;;;;;;5002032;28;20400;-80
2021/09/23 05:22:54;;;;;;;8.57;6.37;;;9.90;99.90;;;;;;5001408;28;20738;-80
2021/09/23 05:25:21;;;;;;;9.57;7.77;;;10.00;99.90;;;;;;5001801;28;20205;-80
2021/09/23 05:27:47;;;;;;;9.80;7.07;;;10.10;99.90;;;;;;5001348;28;20611;-80
2021/09/23 05:30:13;;;;;;;8.40;7.47;;;9.90;99.90;;;;;;5001728;28;20452;-79
2021/09/23 05:32:41;;;;;;;12.80;7.60;;;9.80;99.90;;;;;;5000340;28;20484;-82
2021/09/23 05:35:10;;;;;;;6.87;6.20;;;9.40;99.90;;;;;;5002073;28;20433;-81
2021/09/23 05:37:38;;;;;;;7.57;5.53;;;9.40;99.90;;;;;;5001101;28;20405;-81
2021/09/23 05:40:05;;;;;;;8.50;7.30;;;9.20;99.90;;;;;;5001419;28;20460;-81
2021/09/23 05:42:31;;;;;;;9.37;6.67;;;9.10;99.90;;;;;;5000970;28;20409;-81
2021/09/23 05:44:57;;;;;;;5.70;5.10;;;9.10;99.90;;;;;;5000010;28;20785;-81
2021/09/23 05:47:23;;;;;;;8.40;6.43;;;9.10;99.90;;;;;;5004094;28;20401;-81
2021/09/23 05:49:49;;;;;;;8.27;6.90;;;9.20;99.90;;;;;;5001694;28;20557;-82
2021/09/23 05:52:16;;;;;;;9.70;7.90;;;9.40;99.90;;;;;;5002070;28;20257;-80
2021/09/23 05:54:43;;;;;;;9.33;7.50;;;9.40;99.90;;;;;;5001088;28;20181;-81
2021/09/23 05:57:09;;;;;;;8.60;6.33;;;9.40;99.90;;;;;;4999978;28;20453;-80
2021/09/23 05:59:35;;;;;;;8.43;6.53;;;9.60;99.90;;;;;;5001249;28;20401;-81
2021/09/23 06:02:01;;;;;;;7.93;6.83;;;9.70;99.90;;;;;;5001117;28;20451;-81
2021/09/23 06:04:27;;;;;;;8.53;7.50;;;9.90;99.90;;;;;;5003691;28;20630;-81
2021/09/23 06:06:53;;;;;;;12.27;8.30;;;10.00;99.90;;;;;;5003997;28;20393;-81
2021/09/23 06:09:21;;;;;;;8.70;6.57;;;10.00;99.90;;;;;;5003782;28;20941;-81
2021/09/23 06:11:47;;;;;;;9.13;7.13;;;10.00;99.90;;;;;;5002710;28;20238;-80
2021/09/23 06:14:13;;;;;;;8.43;7.20;;;10.10;99.90;;;;;;5003565;28;20412;-80
2021/09/23 06:16:39;;;;;;;10.37;8.17;;;10.20;99.90;;;;;;5004392;28;20226;-80
2021/09/23 06:19:05;;;;;;;10.83;8.00;;;10.30;99.90;;;;;;5003231;28;20381;-81
2021/09/23 06:21:33;;;;;;;13.10;7.13;;;10.30;99.90;;;;;;5007106;28;20319;-81
2021/09/23 06:23:59;;;;;;;8.30;6.70;;;10.50;99.90;;;;;;5019055;28;20209;-81
2021/09/23 06:26:25;;;;;;;14.10;7.87;;;10.50;99.90;;;;;;4998614;28;20432;-80
2021/09/23 06:28:51;;;;;;;11.67;6.40;;;10.40;99.90;;;;;;5017276;28;20436;-80
2021/09/23 06:31:17;;;;;;;8.23;6.63;;;10.50;99.90;;;;;;5019400;28;20220;-78
2021/09/23 06:33:44;;;;;;;13.60;7.73;;;10.60;99.90;;;;;;5020864;28;20420;-78
2021/09/23 06:36:10;;;;;;;7.37;6.50;;;10.70;99.90;;;;;;5019955;28;20197;-81
2021/09/23 06:38:36;;;;;;;8.90;6.07;;;10.80;99.90;;;;;;5013575;28;21018;-80
2021/09/23 06:41:03;;;;;;;13.20;7.73;;;10.80;99.90;;;;;;5018294;28;20443;-81
2021/09/23 06:43:29;;;;;;;8.00;7.00;;;10.90;99.90;;;;;;5012811;28;20252;-81
2021/09/23 06:45:55;;;;;;;12.70;6.37;;;11.10;99.90;;;;;;5009811;28;20463;-81
2021/09/23 06:48:20;;;;;;;9.50;7.43;;;10.90;99.90;;;;;;5018905;28;20496;-80
2021/09/23 06:50:46;;;;;;;8.60;7.80;;;11.10;99.90;;;;;;5002466;28;20202;-80
2021/09/23 06:53:12;;;;;;;9.40;7.50;;;11.10;99.90;;;;;;5010337;28;20173;-80
2021/09/23 06:55:38;;;;;;;9.20;7.27;;;11.10;99.90;;;;;;5017151;28;20187;-80
2021/09/23 06:58:04;;;;;;;7.80;6.20;;;11.00;99.90;;;;;;5009586;28;20788;-80
2021/09/23 07:00:29;;;;;;;9.87;6.27;;;11.30;99.90;;;;;;5012859;28;20181;-81
2021/09/23 07:02:55;;;;;;;8.10;6.40;;;11.20;99.90;;;;;;5024500;28;20319;-80
2021/09/23 07:05:21;;;;;;;6.90;6.13;;;11.30;99.90;;;;;;5026434;28;20192;-80
2021/09/23 07:07:47;;;;;;;11.17;7.53;;;11.30;99.90;;;;;;5011647;28;20241;-79
2021/09/23 07:10:13;;;;;;;11.20;6.00;;;11.40;99.90;;;;;;5011515;28;20205;-81
2021/09/23 07:12:39;;;;;;;8.67;6.20;;;11.60;99.90;;;;;;5001385;28;20412;-80
2021/09/23 07:15:06;;;;;;;9.00;6.70;;;11.70;99.90;;;;;;5014475;28;20173;-80
2021/09/23 07:17:33;;;;;;;7.33;6.63;;;11.80;99.90;;;;;;5002385;28;20166;-79
2021/09/23 07:19:59;;;;;;;8.50;6.43;;;11.70;99.90;;;;;;5012764;28;20427;-78
2021/09/23 07:22:25;;;;;;;14.23;6.10;;;12.00;99.90;;;;;;5015774;28;20849;-79
2021/09/23 07:24:51;;;;;;;9.40;6.70;;;12.00;99.90;;;;;;5001033;28;20196;-80
2021/09/23 07:27:16;;;;;;;7.20;6.00;;;11.80;99.90;;;;;;5017779;28;20416;-80
2021/09/23 07:29:42;;;;;;;9.50;6.07;;;11.90;99.90;;;;;;5020521;28;20610;-81
2021/09/23 07:32:10;;;;;;;10.93;6.03;;;11.90;99.90;;;;;;5002912;28;20185;-81
2021/09/23 07:34:37;;;;;;;11.80;7.20;;;12.00;99.90;;;;;;4996077;28;20172;-80
2021/09/23 07:37:04;;;;;;;9.53;7.20;;;12.30;99.90;;;;;;5016825;28;20542;-81
2021/09/23 07:39:34;;;;;;;7.13;6.33;;;12.50;99.90;;;;;;5013643;28;20392;-81
2021/09/23 07:42:01;;;;;;;7.77;6.97;;;12.30;99.90;;;;;;5014406;28;20435;-80
2021/09/23 07:44:27;;;;;;;9.03;6.67;;;12.30;99.90;;;;;;5019718;28;20411;-80
2021/09/23 07:46:55;;;;;;;9.50;6.60;;;12.30;99.90;;;;;;5000964;28;20409;-80
2021/09/23 07:49:21;;;;;;;8.03;6.17;;;12.60;99.90;;;;;;5025502;28;20431;-80
2021/09/23 07:51:47;;;;;;;9.53;6.20;;;12.70;99.90;;;;;;5002298;28;20463;-79
2021/09/23 07:54:13;;;;;;;8.30;5.90;;;12.70;99.90;;;;;;4996998;28;20961;-80
2021/09/23 07:56:44;;;;;;;11.23;6.40;;;12.70;99.90;;;;;;5019492;28;20413;-81
2021/09/23 07:59:12;;;;;;;6.23;5.63;;;12.70;99.90;;;;;;5020921;28;20547;-80
2021/09/23 08:01:38;;;;;;;8.43;6.23;;;12.80;99.90;;;;;;5018107;28;20470;-80
2021/09/23 08:04:05;;;;;;;9.87;6.80;;;13.00;99.90;;;;;;5017631;28;20412;-81
2021/09/23 08:06:31;;;;;;;6.30;5.70;;;13.10;99.90;;;;;;5027441;28;20174;-80
2021/09/23 08:08:57;;;;;;;7.07;6.37;;;13.20;99.90;;;;;;4996700;28;20456;-81
2021/09/23 08:11:24;;;;;;;13.93;5.73;;;13.40;99.90;;;;;;5001467;28;20467;-81
2021/09/23 08:13:50;;;;;;;12.00;6.70;;;13.70;99.90;;;;;;5019768;28;20177;-81
2021/09/23 08:16:16;;;;;;;8.47;6.50;;;13.90;99.90;;;;;;4997983;28;20731;-81
2021/09/23 08:18:42;;;;;;;10.20;6.10;;;14.00;99.90;;;;;;4994666;28;20423;-81
2021/09/23 08:21:08;;;;;;;10.57;6.57;;;14.10;99.90;;;;;;5013659;28;20431;-79
2021/09/23 08:23:35;;;;;;;10.63;6.33;;;13.80;99.90;;;;;;5012528;28;20251;-80
2021/09/23 08:26:01;;;;;;;6.27;5.67;;;13.90;99.90;;;;;;5016811;28;20423;-79
2021/09/23 08:28:28;;;;;;;7.40;5.40;;;14.10;99.90;;;;;;5019336;28;20470;-81
2021/09/23 08:30:56;;;;;;;9.40;6.13;;;14.20;99.90;;;;;;5016601;28;20461;-81
2021/09/23 08:33:23;;;;;;;5.23;4.73;;;14.20;99.90;;;;;;5004311;28;20516;-80
2021/09/23 08:35:49;;;;;;;9.00;6.93;;;14.30;99.90;;;;;;5012742;28;20440;-81
2021/09/23 08:38:19;;;;;;;5.70;4.27;;;14.60;99.90;;;;;;5010110;28;20468;-81
2021/09/23 08:40:47;;;;;;;5.37;4.87;;;14.80;99.90;;;;;;5008640;28;20204;-81
2021/09/23 08:43:15;;;;;;;7.63;5.47;;;14.90;99.90;;;;;;5013828;28;20415;-81
2021/09/23 08:45:41;;;;;;;9.37;6.17;;;15.30;99.90;;;;;;5000795;28;20416;-81
2021/09/23 08:48:08;;;;;;;9.77;5.90;;;15.20;99.90;;;;;;5008377;28;20421;-80
2021/09/23 08:50:35;;;;;;;9.37;5.30;;;15.30;99.90;;;;;;5010124;28;20457;-81
2021/09/23 08:53:00;;;;;;;7.43;5.43;;;15.80;99.90;;;;;;4993436;28;20408;-80
2021/09/23 08:55:30;;;;;;;7.00;4.53;;;16.30;99.90;;;;;;5019065;28;20432;-79
2021/09/23 08:57:59;;;;;;;6.30;5.70;;;16.00;99.90;;;;;;5015236;28;20263;-81
2021/09/23 09:00:25;;;;;;;6.90;5.20;;;16.00;99.90;;;;;;5014664;28;20857;-81
2021/09/23 09:03:05;;;;;;;9.27;5.90;;;16.30;99.90;;;;;;5014515;28;20437;-81
2021/09/23 09:05:32;;;;;;;13.23;10.13;;;16.40;99.90;;;;;;5015272;28;20846;-81
2021/09/23 09:08:02;;;;;;;8.40;5.60;;;17.00;99.90;;;;;;5016613;28;20456;-81
2021/09/23 09:10:28;;;;;;;13.07;5.87;;;16.90;99.90;;;;;;5017013;28;20527;-81
2021/09/23 09:12:54;;;;;;;6.47;5.80;;;16.90;99.90;;;;;;5017743;28;20416;-80
2021/09/23 09:15:31;;;;;;;6.23;5.50;;;17.30;99.90;;;;;;5016485;28;20420;-81
2021/09/23 09:17:57;;;;;;;10.03;4.73;;;17.10;99.90;;;;;;5007263;28;20180;-80
2021/09/23 09:20:23;;;;;;;5.57;5.00;;;17.50;99.90;;;;;;5030413;28;20491;-79
2021/09/23 09:22:49;;;;;;;5.57;4.30;;;17.50;99.90;;;;;;5010907;28;20188;-80
2021/09/23 09:25:15;;;;;;;7.40;4.43;;;18.10;99.90;;;;;;5009688;28;20449;-81
2021/09/23 09:27:44;;;;;;;8.40;6.27;;;18.10;99.90;;;;;;5010631;28;20427;-79
2021/09/23 09:30:13;;;;;;;6.63;5.03;;;18.20;99.90;;;;;;5014790;28;20662;-79
2021/09/23 09:32:45;;;;;;;6.70;5.20;;;18.10;99.90;;;;;;5018992;28;20795;-81
2021/09/23 09:35:15;;;;;;;8.00;4.93;;;17.90;99.90;;;;;;5017979;28;20775;-81
2021/09/23 09:37:45;;;;;;;8.00;5.27;;;18.50;99.90;;;;;;5013202;28;20774;-80
2021/09/23 09:40:21;;;;;;;7.33;4.53;;;19.00;99.90;;;;;;5018769;28;20467;-78
2021/09/23 09:42:52;;;;;;;5.57;4.83;;;19.40;99.90;;;;;;5016902;28;20424;-82
2021/09/23 09:45:22;;;;;;;10.13;5.07;;;19.40;99.90;;;;;;5015464;28;21016;-81
2021/09/23 09:47:52;;;;;;;5.37;4.90;;;18.90;99.90;;;;;;5035391;28;20581;-80
2021/09/23 09:50:22;;;;;;;7.00;4.40;;;20.10;99.90;;;;;;5021053;28;20458;-80
2021/09/23 09:52:51;;;;;;;6.07;4.33;;;20.80;99.90;;;;;;5033820;28;20450;-81
2021/09/23 09:55:18;;;;;;;4.87;4.23;;;21.30;99.90;;;;;;5008227;28;20529;-81
2021/09/23 09:57:49;;;;;;;6.07;4.47;;;21.50;99.90;;;;;;5017655;28;20459;-81
2021/09/23 10:00:16;;;;;;;6.17;4.53;;;21.40;99.90;;;;;;5036324;28;20428;-81
2021/09/23 10:02:46;;;;;;;6.27;5.23;;;21.40;99.90;;;;;;5036954;28;20438;-81
2021/09/23 10:05:14;;;;;;;5.77;5.07;;;21.10;99.90;;;;;;5019897;28;20438;-81
2021/09/23 10:07:44;;;;;;;5.73;5.13;;;20.80;99.90;;;;;;5036331;28;20423;-81
2021/09/23 10:10:11;;;;;;;4.80;4.20;;;21.20;99.90;;;;;;5013030;28;21215;-81
2021/09/23 10:12:42;;;;;;;8.10;4.93;;;20.50;99.90;;;;;;5001495;28;20431;-80
2021/09/23 10:15:13;;;;;;;7.13;4.43;;;20.50;99.90;;;;;;5018994;28;20423;-81
2021/09/23 10:17:42;;;;;;;8.17;6.00;;;20.80;99.90;;;;;;5018267;28;20483;-81
2021/09/23 10:20:09;;;;;;;6.10;4.70;;;21.60;99.90;;;;;;5019740;28;20435;-81
2021/09/23 10:22:38;;;;;;;5.33;4.93;;;21.60;99.90;;;;;;5030791;28;20526;-79
2021/09/23 10:25:07;;;;;;;6.87;4.70;;;21.30;99.90;;;;;;5030213;28;20470;-81
2021/09/23 10:30:20;;;;;;;6.60;5.83;;;21.30;99.90;;;;;;5018578;28;20470;-81
2021/09/23 10:32:47;;;;;;;9.80;5.53;;;21.20;99.90;;;;;;5016635;28;20846;-82
2021/09/23 10:35:15;;;;;;;6.73;4.73;;;21.80;99.90;;;;;;5005803;28;20792;-81
2021/09/23 10:37:42;;;;;;;5.83;5.10;;;22.10;99.90;;;;;;5001171;28;20504;-82
2021/09/23 10:40:11;;;;;;;4.93;4.40;;;21.70;99.90;;;;;;5014206;28;20423;-80
2021/09/23 10:42:38;;;;;;;5.63;4.43;;;22.50;99.90;;;;;;5015269;28;20767;-81
2021/09/23 10:45:05;;;;;;;7.27;4.53;;;22.30;99.90;;;;;;4996911;28;20803;-80
2021/09/23 10:47:34;;;;;;;7.60;4.40;;;22.70;99.90;;;;;;5016273;28;20810;-79
2021/09/23 10:50:02;;;;;;;4.33;3.93;;;23.70;99.90;;;;;;5018594;28;20452;-81
2021/09/23 10:52:31;;;;;;;4.93;4.50;;;22.20;99.90;;;;;;5018164;28;20507;-81
2021/09/23 10:54:58;;;;;;;8.20;4.30;;;21.50;99.90;;;;;;5015775;28;20878;-81
2021/09/23 10:57:27;;;;;;;7.47;4.50;;;21.40;99.90;;;;;;5017531;28;20819;-81
2021/09/23 10:59:54;;;;;;;4.90;3.80;;;22.50;99.90;;;;;;5016295;28;20475;-80
2021/09/23 11:02:23;;;;;;;7.73;4.50;;;22.90;99.90;;;;;;5017474;28;20432;-81
2021/09/23 11:04:54;;;;;;;5.43;4.87;;;22.30;99.90;;;;;;5033794;28;20462;-81
2021/09/23 11:07:22;;;;;;;5.63;4.17;;;22.50;99.90;;;;;;5025176;28;20424;-81
2021/09/23 11:10:06;;;;;;;4.30;3.93;;;22.80;99.90;;;;;;5004133;28;20432;-80
2021/09/23 11:12:33;;;;;;;4.60;4.10;;;23.50;99.90;;;;;;5009210;28;20410;-82
2021/09/23 11:14:59;;;;;;;4.37;4.07;;;24.50;99.90;;;;;;5005372;28;20482;-81
2021/09/23 11:17:27;;;;;;;4.83;3.80;;;24.40;99.90;;;;;;5020343;28;20826;-81
2021/09/23 11:20:04;;;;;;;5.90;4.57;;;23.80;99.90;;;;;;5017675;28;20484;-80
2021/09/23 11:22:34;;;;;;;5.13;4.03;;;25.10;99.90;;;;;;4996948;28;20893;-78
2021/09/23 11:25:05;;;;;;;7.10;5.30;;;24.60;99.90;;;;;;4988911;28;20428;-82
2021/09/23 11:27:31;;;;;;;5.70;4.70;;;24.70;99.90;;;;;;5016213;28;20426;-82
2021/09/23 11:29:58;;;;;;;4.33;3.97;;;25.10;99.90;;;;;;5010542;28;20452;-80
2021/09/23 11:32:24;;;;;;;4.70;4.17;;;26.50;99.90;;;;;;4987402;28;20435;-82
2021/09/23 11:35:07;;;;;;;5.37;4.87;;;27.10;99.40;;;;;;4992797;28;20426;-82
2021/09/23 11:37:33;;;;;;;3.63;3.33;;;27.70;97.30;;;;;;4985421;28;20193;-82
2021/09/23 11:40:03;;;;;;;4.37;3.97;;;25.20;97.50;;;;;;5003086;28;20427;-81
2021/09/23 11:42:33;;;;;;;4.13;3.73;;;24.10;99.90;;;;;;4970621;28;20564;-80
2021/09/23 11:45:11;;;;;;;5.80;5.50;;;23.50;99.90;;;;;;5005805;28;20491;-81
2021/09/23 11:47:47;;;;;;;4.03;3.73;;;24.00;99.90;;;;;;5018059;28;20630;-80
2021/09/23 11:50:41;;;;;;;3.63;3.33;;;25.60;98.90;;;;;;5003826;28;20485;-81
2021/09/23 11:53:12;;;;;;;4.73;3.60;;;25.40;96.70;;;;;;5014158;28;20450;-81
2021/09/23 11:55:41;;;;;;;8.73;4.30;;;24.90;99.90;;;;;;5022720;28;20436;-80
2021/09/23 11:58:10;;;;;;;4.50;3.70;;;26.10;97.70;;;;;;5019155;28;20451;-81
2021/09/23 12:00:43;;;;;;;7.90;4.03;;;26.00;97.60;;;;;;5019476;28;20447;-81
2021/09/23 12:03:10;;;;;;;4.43;4.03;;;25.80;97.60;;;;;;5006364;28;20753;-82
2021/09/23 12:05:36;;;;;;;5.70;2.97;;;26.70;95.80;;;;;;5002315;28;20488;-82
2021/09/23 12:08:11;;;;;;;6.03;4.07;;;27.70;93.70;;;;;;5013394;28;20469;-81
2021/09/23 12:10:59;;;;;;;5.27;3.90;;;27.90;91.60;;;;;;5011317;28;20458;-82
2021/09/23 12:13:32;;;;;;;5.57;3.87;;;28.70;90.50;;;;;;5012909;28;20444;-82
2021/09/23 12:16:00;;;;;;;4.07;3.77;;;28.90;90.40;;;;;;5001117;28;20913;-82
2021/09/23 12:18:28;;;;;;;4.27;3.33;;;27.40;91.00;;;;;;5016496;28;20184;-81
2021/09/23 12:20:57;;;;;;;7.47;3.50;;;26.70;91.70;;;;;;5001368;28;20563;-81
2021/09/23 12:23:37;;;;;;;4.43;4.03;;;26.00;94.00;;;;;;5018771;28;20199;-81
2021/09/23 12:26:21;;;;;;;7.63;4.00;;;27.90;92.60;;;;;;5019643;28;20491;-81
2021/09/23 12:28:54;;;;;;;4.25;3.50;;;28.80;85.60;;;;;;5019884;28;20551;-83
2021/09/23 12:31:33;;;;;;;7.88;4.45;;;29.30;81.00;;;;;;5001320;28;20208;-82
2021/09/23 12:34:03;;;;;;;4.43;3.78;;;29.00;81.40;;;;;;5016597;28;20173;-82
2021/09/23 12:36:35;;;;;;;8.18;4.15;;;29.10;77.80;;;;;;5013856;28;20264;-82
2021/09/23 12:39:15;;;;;;;8.38;3.75;;;27.00;82.10;;;;;;5021747;28;20243;-82
2021/09/23 12:41:58;;;;;;;4.80;3.53;;;27.50;82.40;;;;;;5014016;28;20237;-82
2021/09/23 12:44:26;;;;;;;3.90;3.40;;;27.80;83.50;;;;;;5005699;28;20165;-80
2021/09/23 12:47:05;;;;;;;4.20;3.80;;;28.90;81.00;;;;;;5018765;28;20161;-83
2021/09/23 12:49:32;;;;;;;5.50;3.85;;;29.10;77.30;;;;;;5022088;28;20258;-82
2021/09/23 12:52:12;;;;;;;5.28;3.60;;;29.80;75.90;;;;;;5020816;28;20192;-82